Latest Weather Observations for Sydney Harbour

IDN60901

Issued at 7:55 pm EST Friday 29 August 2014 (issued every 10 minutes, with the page automatically refreshed every 10 minutes)

About weather observations | Map of Sydney area stations | Latest observations for Sydney area | Other Formats
Station Details ID: 066196 Name: WEDDING CAKE WEST Lat: -33.84 Lon: 151.26 Height: 6.0 m
Data from the previous 72 hours. | See also: Recent months for locations in New South Wales
Date/Time
EST
Tmp

°C
App
Tmp
°C
Dew
Point
°C
Rel
Hum
%
Delta-T

°C
Wind Press
QNH
hPa
Press
MSL
hPa
Rain
since
9 am
mm
Dir
 
Spd
km/h
Gust
km/h
Spd
kts
Gust
kts
29/07:39pm 15.6 - - - - SSW 39 57 21 31 - - -
29/07:30pm 15.6 - - - - SSW 41 54 22 29 - - -
29/07:00pm 15.7 - - - - SSW 43 61 23 33 - - -
29/06:57pm 15.7 - - - - SSW 43 61 23 33 - - -
29/06:30pm 15.6 - - - - SSW 46 59 25 32 - - -
29/06:09pm 15.7 - - - - S 37 56 20 30 - - -
29/06:00pm 15.8 - - - - S 43 56 23 30 - - -
29/05:30pm 15.8 - - - - SSW 39 48 21 26 - - -
29/05:16pm 15.7 - - - - SSW 33 52 18 28 - - -
29/05:00pm 15.8 - - - - SSW 37 50 20 27 - - -
29/04:30pm 15.4 - - - - SSW 41 54 22 29 - - -
29/04:00pm 15.6 - - - - SSW 41 52 22 28 - - -
29/03:30pm 15.2 - - - - SSW 41 52 22 28 - - -
29/03:00pm 14.9 - - - - SSW 35 54 19 29 - - -
29/02:58pm 14.9 - - - - SSW 35 54 19 29 - - -
29/02:30pm 14.5 - - - - SSW 33 41 18 22 - - -
29/02:10pm 13.8 - - - - SSW 39 46 21 25 - - -
29/02:05pm 11.9 - - - - S 61 67 33 36 - - -
29/02:03pm 15.0 - - - - SSW 41 61 22 33 - - -
29/02:00pm 15.7 - - - - SSW 41 52 22 28 - - -
29/01:30pm 15.4 - - - - SSW 41 52 22 28 - - -
29/01:00pm 13.9 - - - - SW 28 37 15 20 - - -
29/12:30pm 13.7 - - - - SW 37 44 20 24 - - -
29/12:05pm 13.9 - - - - SW 35 54 19 29 - - -
29/12:00pm 13.8 - - - - SW 33 39 18 21 - - -
29/11:43am 13.8 - - - - SSE 28 46 15 25 - - -
29/11:30am 13.6 - - - - SW 22 32 12 17 - - -
29/11:00am 13.5 - - - - SSW 28 35 15 19 - - -
29/10:30am 13.9 - - - - SW 28 48 15 26 - - -
29/10:00am 13.3 - - - - SW 22 35 12 19 - - -
29/09:30am 12.1 - - - - SW 11 13 6 7 - - -
29/09:00am 11.8 - - - - WSW 24 32 13 17 - - -
29/08:30am 11.8 - - - - W 22 30 12 16 - - -
29/08:00am 11.6 - - - - W 19 24 10 13 - - -
29/07:30am 11.2 - - - - W 15 20 8 11 - - -
29/07:00am 11.7 - - - - W 24 32 13 17 - - -
29/06:30am 11.8 - - - - W 26 33 14 18 - - -
29/06:00am 11.8 - - - - W 22 30 12 16 - - -
29/05:30am 12.0 - - - - W 20 26 11 14 - - -
29/05:00am 11.4 - - - - W 17 22 9 12 - - -
29/04:30am 11.6 - - - - W 24 30 13 16 - - -
29/04:00am 11.9 - - - - W 24 30 13 16 - - -
29/03:30am 11.9 - - - - W 22 30 12 16 - - -
29/03:00am 12.3 - - - - W 24 28 13 15 - - -
29/02:30am 12.9 - - - - W 20 28 11 15 - - -
29/02:00am 12.6 - - - - WSW 19 24 10 13 - - -
29/01:30am 12.8 - - - - WSW 20 26 11 14 - - -
29/01:00am 12.7 - - - - WSW 19 26 10 14 - - -
29/12:30am 12.7 - - - - W 19 30 10 16 - - -
29/12:00am 13.0 - - - - WSW 17 20 9 11 - - -
 
Date/Time
EST
Tmp

°C
App
Tmp
°C
Dew
Point
°C
Rel
Hum
%
Delta-T

°C
Wind Press
QNH
hPa
Press
MSL
hPa
Rain
since
9 am
mm
Dir
 
Spd
km/h
Gust
km/h
Spd
kts
Gust
kts
28/11:30pm 13.6 - - - - WSW 19 20 10 11 - - -
28/11:00pm 14.1 - - - - WSW 17 20 9 11 - - -
28/10:30pm 15.5 - - - - SSW 20 26 11 14 - - -
28/10:00pm 15.7 - - - - S 20 26 11 14 - - -
28/09:30pm 15.6 - - - - S 20 30 11 16 - - -
28/09:00pm 15.8 - - - - S 20 26 11 14 - - -
28/08:30pm 15.7 - - - - S 20 28 11 15 - - -
28/08:00pm 15.7 - - - - S 22 30 12 16 - - -
28/07:30pm 15.8 - - - - S 20 28 11 15 - - -
28/07:00pm 15.9 - - - - S 26 33 14 18 - - -
28/06:30pm 15.9 - - - - S 22 32 12 17 - - -
28/06:00pm 16.0 - - - - S 22 33 12 18 - - -
28/05:30pm 16.1 - - - - S 28 35 15 19 - - -
28/05:00pm 16.4 - - - - S 28 35 15 19 - - -
28/04:30pm 16.7 - - - - SSE 26 35 14 19 - - -
28/04:00pm 16.7 - - - - S 33 43 18 23 - - -
28/03:30pm 16.8 - - - - S 32 41 17 22 - - -
28/03:00pm 17.1 - - - - S 33 41 18 22 - - -
28/02:30pm 17.1 - - - - S 33 43 18 23 - - -
28/02:00pm 17.0 - - - - S 33 44 18 24 - - -
28/01:30pm 17.3 - - - - S 32 50 17 27 - - -
28/01:25pm 17.3 - - - - S 32 50 17 27 - - -
28/01:00pm 17.5 - - - - SSE 30 39 16 21 - - -
28/12:30pm 17.5 - - - - S 30 41 16 22 - - -
28/12:00pm 17.3 - - - - SSE 30 41 16 22 - - -
28/11:30am 17.6 - - - - SSE 32 43 17 23 - - -
28/11:00am 17.5 - - - - SSE 30 43 16 23 - - -
28/10:30am 17.4 - - - - SSE 28 39 15 21 - - -
28/10:00am 16.3 - - - - SSE 32 43 17 23 - - -
28/09:30am 17.5 - - - - SSE 26 37 14 20 - - -
28/09:00am 17.4 - - - - SSE 24 37 13 20 - - -
28/08:30am 17.1 - - - - SSE 22 33 12 18 - - -
28/08:00am 15.0 - - - - SSW 22 30 12 16 - - -
28/07:30am 14.6 - - - - S 28 33 15 18 - - -
28/07:00am 14.0 - - - - WSW 17 20 9 11 - - -
28/06:30am 14.5 - - - - SSW 22 26 12 14 - - -
28/06:00am 14.8 - - - - SSE 33 41 18 22 - - -
28/05:30am 13.7 - - - - SW 28 37 15 20 - - -
28/05:00am 14.0 - - - - S 26 33 14 18 - - -
28/04:30am 14.2 - - - - S 26 35 14 19 - - -
28/04:00am 13.6 - - - - S 24 32 13 17 - - -
28/03:30am 13.6 - - - - SSE 24 33 13 18 - - -
28/03:00am 14.0 - - - - SSE 30 41 16 22 - - -
28/02:30am 14.4 - - - - SSE 24 43 13 23 - - -
28/02:00am 16.1 - - - - S 32 41 17 22 - - -
28/01:30am 15.6 - - - - S 24 33 13 18 - - -
28/01:00am 15.2 - - - - S 24 30 13 16 - - -
28/12:30am 16.2 - - - - S 30 39 16 21 - - -
28/12:00am 16.1 - - - - S 28 35 15 19 - - -
 
Date/Time
EST
Tmp

°C
App
Tmp
°C
Dew
Point
°C
Rel
Hum
%
Delta-T

°C
Wind Press
QNH
hPa
Press
MSL
hPa
Rain
since
9 am
mm
Dir
 
Spd
km/h
Gust
km/h
Spd
kts
Gust
kts
27/11:30pm 16.2 - - - - S 28 37 15 20 - - -
27/11:00pm 16.1 - - - - S 32 41 17 22 - - -
27/10:30pm 16.2 - - - - S 32 43 17 23 - - -
27/10:00pm 16.2 - - - - S 30 41 16 22 - - -
27/09:30pm 16.3 - - - - S 30 41 16 22 - - -
27/09:00pm 16.2 - - - - S 24 32 13 17 - - -
27/08:30pm 16.2 - - - - S 28 33 15 18 - - -
27/08:00pm 16.4 - - - - S 32 41 17 22 - - -
27/07:30pm 16.3 - - - - S 33 46 18 25 - - -
27/07:00pm 16.4 - - - - S 41 50 22 27 - - -
27/06:30pm 16.5 - - - - S 39 50 21 27 - - -
27/06:00pm 16.4 - - - - SSE 33 44 18 24 - - -
27/05:30pm 16.6 - - - - SSE 33 43 18 23 - - -
27/05:00pm 16.8 - - - - S 35 46 19 25 - - -
27/04:30pm 16.4 - - - - SSE 33 48 18 26 - - -
27/04:00pm 16.6 - - - - SSE 35 46 19 25 - - -
27/03:30pm 17.5 - - - - SSE 33 46 18 25 - - -
27/03:00pm 17.7 - - - - SSE 32 46 17 25 - - -
27/02:30pm 17.5 - - - - SSE 32 46 17 25 - - -
27/02:00pm 17.8 - - - - SSE 32 48 17 26 - - -
27/01:57pm 17.8 - - - - SSE 30 48 16 26 - - -
27/01:30pm 17.9 - - - - SSE 33 46 18 25 - - -
27/01:00pm 17.6 - - - - SSE 28 37 15 20 - - -
27/12:30pm 17.5 - - - - SSE 32 41 17 22 - - -
27/12:00pm 16.2 - - - - S 28 37 15 20 - - -
27/11:30am 17.1 - - - - SSE 35 46 19 25 - - -
27/11:00am 17.6 - - - - SSE 28 41 15 22 - - -
27/10:30am 17.5 - - - - SSE 30 43 16 23 - - -
27/10:00am 17.1 - - - - SSE 28 43 15 23 - - -
27/09:30am 16.8 - - - - SSE 30 39 16 21 - - -
27/09:03am 15.7 - - - - SSE 30 48 16 26 - - -
27/09:00am 15.4 - - - - SE 33 50 18 27 - - -
27/08:54am 15.5 - - - - SE 37 50 20 27 - - -
27/08:30am 15.9 - - - - S 20 33 11 18 - - -
27/08:00am 15.0 - - - - S 28 35 15 19 - - -
27/07:30am 16.2 - - - - S 24 32 13 17 - - -
27/07:00am 16.3 - - - - S 28 39 15 21 - - -
27/06:30am 15.9 - - - - S 22 30 12 16 - - -
27/06:06am 14.9 - - - - SSE 30 48 16 26 - - -
27/06:00am 15.3 - - - - S 20 37 11 20 - - -
27/05:30am 15.7 - - - - S 32 41 17 22 - - -
27/05:00am 16.9 - - - - SSE 22 30 12 16 - - -
27/04:30am 17.2 - - - - SE 26 32 14 17 - - -
27/04:00am 17.1 - - - - SE 28 37 15 20 - - -
27/03:30am 16.7 - - - - ESE 26 33 14 18 - - -
27/03:00am 17.1 - - - - SE 26 32 14 17 - - -
27/02:30am 17.2 - - - - SE 28 39 15 21 - - -
27/02:00am 17.2 - - - - ESE 32 41 17 22 - - -
27/01:30am 17.2 - - - - ESE 26 35 14 19 - - -
27/01:00am 17.1 - - - - SE 28 37 15 20 - - -
27/12:30am 17.2 - - - - SE 28 37 15 20 - - -
27/12:00am 16.1 - - - - E 17 24 9 13 - - -
 
Date/Time
EST
Tmp

°C
App
Tmp
°C
Dew
Point
°C
Rel
Hum
%
Delta-T

°C
Wind Press
QNH
hPa
Press
MSL
hPa
Rain
since
9 am
mm
Dir
 
Spd
km/h
Gust
km/h
Spd
kts
Gust
kts
26/11:30pm 15.7 - - - - SE 24 32 13 17 - - -
26/11:00pm 15.6 - - - - ESE 33 46 18 25 - - -
26/10:30pm 16.0 - - - - SE 28 39 15 21 - - -
26/10:00pm 16.2 - - - - ESE 35 46 19 25 - - -
26/09:30pm 16.3 - - - - ESE 41 54 22 29 - - -
26/09:00pm 16.7 - - - - ESE 37 50 20 27 - - -
26/08:30pm 16.1 - - - - SE 33 44 18 24 - - -
26/08:14pm 17.0 - - - - ESE 39 50 21 27 - - -
26/08:00pm 16.5 - - - - SSE 30 48 16 26 - - -
26/07:59pm 16.4 - - - - SSE 30 48 16 26 - - -

Latest Capital City Observations: Canberra | Sydney | Melbourne | Brisbane | Adelaide | Perth | Hobart | Darwin

Other Formats:

Comma delimited format used in spreadsheet applications
http://www.bom.gov.au/fwo/IDN60901/IDN60901.95766.axf

JavaScript Object Notation format (JSON) in row-major order
http://www.bom.gov.au/fwo/IDN60901/IDN60901.95766.json